UNM, New Mexico
Current Conditions -  °F | °C
As of 3:52 AM on Wednesday 22 Oct 2014 (Local Time) from KABQ Reporting Station
Scattered Clouds Scattered Clouds  
Wind Chill: 53°   Ceiling: Unl
Heat Index: 53°   Visibility: 10mi
Dew Point: 47°   Wind: 8mph
Humidity: 80%   Direction: 120°ESE
Pressure: 30.12"   Gusts: NA
Location:  35.0525°N, 106.616°W
Report Text: KABQ 220952Z 12007KT 10SM SCT075 SCT110 12/08 A3012 RMK AO2 SLP141 T01170083
Loading
Personal Weather Stations






























Interactive Weather Map
Tropical Storm Tracking
New forecast layout! Learn more

10-Day Weather Forecast

Advertisements
Track Severe Weather on mobile